sensor_id;sensor_type;location;lat;lon;timestamp;P1;durP1;ratioP1;P2;durP2;ratioP2
32427;SDS011;18882;50.952;4.366;2023-06-10T00:01:41;5.78;;;5.10;;
32427;SDS011;18882;50.952;4.366;2023-06-10T00:04:08;8.75;;;5.32;;
32427;SDS011;18882;50.952;4.366;2023-06-10T00:06:34;8.07;;;5.72;;
32427;SDS011;18882;50.952;4.366;2023-06-10T00:09:03;6.10;;;5.50;;
32427;SDS011;18882;50.952;4.366;2023-06-10T00:11:30;10.55;;;5.25;;
32427;SDS011;18882;50.952;4.366;2023-06-10T00:13:59;6.13;;;5.53;;
32427;SDS011;18882;50.952;4.366;2023-06-10T00:16:25;6.97;;;5.85;;
32427;SDS011;18882;50.952;4.366;2023-06-10T00:18:51;7.38;;;5.25;;
32427;SDS011;18882;50.952;4.366;2023-06-10T00:21:17;6.70;;;5.72;;
32427;SDS011;18882;50.952;4.366;2023-06-10T00:23:44;9.00;;;5.97;;
32427;SDS011;18882;50.952;4.366;2023-06-10T00:26:09;8.95;;;5.10;;
32427;SDS011;18882;50.952;4.366;2023-06-10T00:28:35;5.88;;;5.32;;
32427;SDS011;18882;50.952;4.366;2023-06-10T00:31:01;6.32;;;5.32;;
32427;SDS011;18882;50.952;4.366;2023-06-10T00:33:27;7.53;;;5.53;;
32427;SDS011;18882;50.952;4.366;2023-06-10T00:35:53;9.23;;;5.57;;
32427;SDS011;18882;50.952;4.366;2023-06-10T00:38:18;8.13;;;5.93;;
32427;SDS011;18882;50.952;4.366;2023-06-10T00:40:44;8.50;;;5.68;;
32427;SDS011;18882;50.952;4.366;2023-06-10T00:43:10;7.45;;;5.45;;
32427;SDS011;18882;50.952;4.366;2023-06-10T00:45:36;10.20;;;5.38;;
32427;SDS011;18882;50.952;4.366;2023-06-10T00:48:01;6.45;;;4.85;;
32427;SDS011;18882;50.952;4.366;2023-06-10T00:50:28;5.65;;;5.15;;
32427;SDS011;18882;50.952;4.366;2023-06-10T00:52:56;6.57;;;5.80;;
32427;SDS011;18882;50.952;4.366;2023-06-10T00:55:22;7.90;;;6.13;;
32427;SDS011;18882;50.952;4.366;2023-06-10T00:57:49;5.90;;;5.30;;
32427;SDS011;18882;50.952;4.366;2023-06-10T01:00:16;8.75;;;5.50;;
32427;SDS011;18882;50.952;4.366;2023-06-10T01:02:42;6.40;;;5.72;;
32427;SDS011;18882;50.952;4.366;2023-06-10T01:05:08;7.47;;;5.47;;
32427;SDS011;18882;50.952;4.366;2023-06-10T01:07:39;7.97;;;5.40;;
32427;SDS011;18882;50.952;4.366;2023-06-10T01:10:12;6.25;;;5.15;;
32427;SDS011;18882;50.952;4.366;2023-06-10T01:15:21;5.75;;;5.00;;
32427;SDS011;18882;50.952;4.366;2023-06-10T01:18:02;9.25;;;5.80;;
32427;SDS011;18882;50.952;4.366;2023-06-10T01:20:33;6.53;;;4.97;;
32427;SDS011;18882;50.952;4.366;2023-06-10T01:23:02;6.53;;;5.60;;
32427;SDS011;18882;50.952;4.366;2023-06-10T01:25:28;7.32;;;6.20;;
32427;SDS011;18882;50.952;4.366;2023-06-10T01:28:07;7.35;;;5.68;;
32427;SDS011;18882;50.952;4.366;2023-06-10T01:33:20;6.07;;;5.25;;
32427;SDS011;18882;50.952;4.366;2023-06-10T01:35:58;7.78;;;6.18;;
32427;SDS011;18882;50.952;4.366;2023-06-10T01:38:27;7.97;;;5.63;;
32427;SDS011;18882;50.952;4.366;2023-06-10T01:40:55;8.52;;;6.03;;
32427;SDS011;18882;50.952;4.366;2023-06-10T01:43:22;9.07;;;6.03;;
32427;SDS011;18882;50.952;4.366;2023-06-10T01:45:48;5.88;;;5.28;;
32427;SDS011;18882;50.952;4.366;2023-06-10T01:48:14;7.00;;;5.90;;
32427;SDS011;18882;50.952;4.366;2023-06-10T01:50:40;10.45;;;6.20;;
32427;SDS011;18882;50.952;4.366;2023-06-10T01:53:05;7.70;;;6.15;;
32427;SDS011;18882;50.952;4.366;2023-06-10T01:55:31;6.53;;;5.70;;
32427;SDS011;18882;50.952;4.366;2023-06-10T01:57:57;7.13;;;6.03;;
32427;SDS011;18882;50.952;4.366;2023-06-10T02:00:22;10.93;;;5.85;;
32427;SDS011;18882;50.952;4.366;2023-06-10T02:02:48;6.43;;;5.80;;
32427;SDS011;18882;50.952;4.366;2023-06-10T02:05:13;7.15;;;5.97;;
32427;SDS011;18882;50.952;4.366;2023-06-10T02:07:39;8.40;;;6.47;;
32427;SDS011;18882;50.952;4.366;2023-06-10T02:10:05;7.70;;;5.73;;
32427;SDS011;18882;50.952;4.366;2023-06-10T02:12:32;6.75;;;5.57;;
32427;SDS011;18882;50.952;4.366;2023-06-10T02:14:57;7.70;;;6.25;;
32427;SDS011;18882;50.952;4.366;2023-06-10T02:17:23;16.50;;;6.05;;
32427;SDS011;18882;50.952;4.366;2023-06-10T02:19:49;9.38;;;5.70;;
32427;SDS011;18882;50.952;4.366;2023-06-10T02:22:21;10.77;;;7.07;;
32427;SDS011;18882;50.952;4.366;2023-06-10T02:24:47;10.63;;;5.90;;
32427;SDS011;18882;50.952;4.366;2023-06-10T02:27:14;11.75;;;6.10;;
32427;SDS011;18882;50.952;4.366;2023-06-10T02:29:44;9.57;;;6.78;;
32427;SDS011;18882;50.952;4.366;2023-06-10T02:32:09;10.65;;;5.93;;
32427;SDS011;18882;50.952;4.366;2023-06-10T02:34:35;7.38;;;6.30;;
32427;SDS011;18882;50.952;4.366;2023-06-10T02:37:01;8.75;;;6.65;;
32427;SDS011;18882;50.952;4.366;2023-06-10T02:39:27;10.43;;;6.47;;
32427;SDS011;18882;50.952;4.366;2023-06-10T02:41:53;7.97;;;6.38;;
32427;SDS011;18882;50.952;4.366;2023-06-10T02:44:20;8.48;;;6.65;;
32427;SDS011;18882;50.952;4.366;2023-06-10T02:46:45;9.73;;;6.57;;
32427;SDS011;18882;50.952;4.366;2023-06-10T02:49:11;9.35;;;6.40;;
32427;SDS011;18882;50.952;4.366;2023-06-10T02:51:37;7.22;;;5.90;;
32427;SDS011;18882;50.952;4.366;2023-06-10T02:54:04;8.23;;;7.20;;
32427;SDS011;18882;50.952;4.366;2023-06-10T02:56:29;8.50;;;6.72;;
32427;SDS011;18882;50.952;4.366;2023-06-10T02:58:56;8.95;;;6.40;;
32427;SDS011;18882;50.952;4.366;2023-06-10T03:01:23;9.40;;;6.15;;
32427;SDS011;18882;50.952;4.366;2023-06-10T03:03:48;11.43;;;7.28;;
32427;SDS011;18882;50.952;4.366;2023-06-10T03:06:15;6.85;;;6.10;;
32427;SDS011;18882;50.952;4.366;2023-06-10T03:08:41;7.57;;;6.88;;
32427;SDS011;18882;50.952;4.366;2023-06-10T03:11:07;7.32;;;6.28;;
32427;SDS011;18882;50.952;4.366;2023-06-10T03:13:33;7.32;;;6.55;;
32427;SDS011;18882;50.952;4.366;2023-06-10T03:15:59;7.93;;;6.72;;
32427;SDS011;18882;50.952;4.366;2023-06-10T03:18:27;8.85;;;7.13;;
32427;SDS011;18882;50.952;4.366;2023-06-10T03:20:56;9.77;;;7.28;;
32427;SDS011;18882;50.952;4.366;2023-06-10T03:23:22;8.50;;;6.47;;
32427;SDS011;18882;50.952;4.366;2023-06-10T03:25:48;8.23;;;6.65;;
32427;SDS011;18882;50.952;4.366;2023-06-10T03:28:14;11.25;;;7.28;;
32427;SDS011;18882;50.952;4.366;2023-06-10T03:30:40;9.35;;;7.43;;
32427;SDS011;18882;50.952;4.366;2023-06-10T03:33:05;11.75;;;8.07;;
32427;SDS011;18882;50.952;4.366;2023-06-10T03:35:31;8.68;;;7.20;;
32427;SDS011;18882;50.952;4.366;2023-06-10T03:37:57;7.97;;;7.13;;
32427;SDS011;18882;50.952;4.366;2023-06-10T03:40:24;7.93;;;6.97;;
32427;SDS011;18882;50.952;4.366;2023-06-10T03:42:49;9.65;;;7.15;;
32427;SDS011;18882;50.952;4.366;2023-06-10T03:45:15;13.10;;;7.03;;
32427;SDS011;18882;50.952;4.366;2023-06-10T03:47:41;9.15;;;7.43;;
32427;SDS011;18882;50.952;4.366;2023-06-10T03:50:08;12.18;;;7.82;;
32427;SDS011;18882;50.952;4.366;2023-06-10T03:52:37;13.25;;;8.50;;
32427;SDS011;18882;50.952;4.366;2023-06-10T03:55:04;10.77;;;7.97;;
32427;SDS011;18882;50.952;4.366;2023-06-10T03:57:31;11.10;;;7.93;;
32427;SDS011;18882;50.952;4.366;2023-06-10T03:59:56;12.30;;;8.18;;
32427;SDS011;18882;50.952;4.366;2023-06-10T04:02:23;9.30;;;7.60;;
32427;SDS011;18882;50.952;4.366;2023-06-10T04:04:48;10.80;;;8.23;;
32427;SDS011;18882;50.952;4.366;2023-06-10T04:07:14;9.75;;;7.80;;
32427;SDS011;18882;50.952;4.366;2023-06-10T04:09:40;11.30;;;8.05;;
32427;SDS011;18882;50.952;4.366;2023-06-10T04:12:06;13.07;;;7.75;;
32427;SDS011;18882;50.952;4.366;2023-06-10T04:14:34;16.25;;;8.52;;
32427;SDS011;18882;50.952;4.366;2023-06-10T04:17:02;11.38;;;8.25;;
32427;SDS011;18882;50.952;4.366;2023-06-10T04:19:31;9.68;;;8.10;;
32427;SDS011;18882;50.952;4.366;2023-06-10T04:21:57;10.98;;;7.78;;
32427;SDS011;18882;50.952;4.366;2023-06-10T04:24:25;9.27;;;7.43;;
32427;SDS011;18882;50.952;4.366;2023-06-10T04:26:51;10.95;;;8.00;;
32427;SDS011;18882;50.952;4.366;2023-06-10T04:29:17;10.35;;;8.13;;
32427;SDS011;18882;50.952;4.366;2023-06-10T04:31:42;13.85;;;8.23;;
32427;SDS011;18882;50.952;4.366;2023-06-10T04:34:08;12.15;;;8.30;;
32427;SDS011;18882;50.952;4.366;2023-06-10T04:36:33;14.00;;;8.80;;
32427;SDS011;18882;50.952;4.366;2023-06-10T04:38:59;10.77;;;8.35;;
32427;SDS011;18882;50.952;4.366;2023-06-10T04:41:25;9.38;;;7.82;;
32427;SDS011;18882;50.952;4.366;2023-06-10T04:43:52;13.10;;;8.15;;
32427;SDS011;18882;50.952;4.366;2023-06-10T04:46:18;10.88;;;8.57;;
32427;SDS011;18882;50.952;4.366;2023-06-10T04:48:44;12.02;;;8.68;;
32427;SDS011;18882;50.952;4.366;2023-06-10T04:51:11;10.52;;;7.90;;
32427;SDS011;18882;50.952;4.366;2023-06-10T04:53:38;9.65;;;7.80;;
32427;SDS011;18882;50.952;4.366;2023-06-10T04:56:04;12.55;;;9.23;;
32427;SDS011;18882;50.952;4.366;2023-06-10T04:58:29;13.50;;;8.52;;
32427;SDS011;18882;50.952;4.366;2023-06-10T05:00:55;12.63;;;9.15;;
32427;SDS011;18882;50.952;4.366;2023-06-10T05:03:21;11.60;;;9.30;;
32427;SDS011;18882;50.952;4.366;2023-06-10T05:05:46;12.98;;;9.25;;
32427;SDS011;18882;50.952;4.366;2023-06-10T05:08:12;12.20;;;8.82;;
32427;SDS011;18882;50.952;4.366;2023-06-10T05:10:38;9.88;;;8.73;;
32427;SDS011;18882;50.952;4.366;2023-06-10T05:13:04;10.70;;;8.73;;
32427;SDS011;18882;50.952;4.366;2023-06-10T05:15:30;10.85;;;8.55;;
32427;SDS011;18882;50.952;4.366;2023-06-10T05:17:58;17.35;;;8.57;;
32427;SDS011;18882;50.952;4.366;2023-06-10T05:20:25;11.63;;;9.25;;
32427;SDS011;18882;50.952;4.366;2023-06-10T05:22:50;15.15;;;9.15;;
32427;SDS011;18882;50.952;4.366;2023-06-10T05:25:17;10.00;;;8.20;;
32427;SDS011;18882;50.952;4.366;2023-06-10T05:27:42;10.73;;;9.23;;
32427;SDS011;18882;50.952;4.366;2023-06-10T05:30:09;12.73;;;9.10;;
32427;SDS011;18882;50.952;4.366;2023-06-10T05:32:35;13.15;;;9.40;;
32427;SDS011;18882;50.952;4.366;2023-06-10T05:35:01;9.27;;;8.25;;
32427;SDS011;18882;50.952;4.366;2023-06-10T05:37:28;9.57;;;8.20;;
32427;SDS011;18882;50.952;4.366;2023-06-10T05:39:54;13.10;;;8.27;;
32427;SDS011;18882;50.952;4.366;2023-06-10T05:42:20;10.18;;;7.97;;
32427;SDS011;18882;50.952;4.366;2023-06-10T05:44:45;10.90;;;8.63;;
32427;SDS011;18882;50.952;4.366;2023-06-10T05:47:11;11.98;;;9.23;;
32427;SDS011;18882;50.952;4.366;2023-06-10T05:49:37;13.23;;;9.10;;
32427;SDS011;18882;50.952;4.366;2023-06-10T05:52:02;10.15;;;8.50;;
32427;SDS011;18882;50.952;4.366;2023-06-10T05:54:28;12.88;;;8.48;;
32427;SDS011;18882;50.952;4.366;2023-06-10T05:56:54;13.07;;;8.68;;
32427;SDS011;18882;50.952;4.366;2023-06-10T05:59:20;9.63;;;8.10;;
32427;SDS011;18882;50.952;4.366;2023-06-10T06:01:47;11.55;;;8.75;;
32427;SDS011;18882;50.952;4.366;2023-06-10T06:04:29;11.65;;;8.63;;
32427;SDS011;18882;50.952;4.366;2023-06-10T06:06:54;12.55;;;8.52;;
32427;SDS011;18882;50.952;4.366;2023-06-10T06:09:20;11.00;;;8.20;;
32427;SDS011;18882;50.952;4.366;2023-06-10T06:11:45;12.13;;;8.77;;
32427;SDS011;18882;50.952;4.366;2023-06-10T06:14:11;13.18;;;8.00;;
32427;SDS011;18882;50.952;4.366;2023-06-10T06:16:37;10.13;;;7.72;;
32427;SDS011;18882;50.952;4.366;2023-06-10T06:19:03;16.08;;;8.40;;
32427;SDS011;18882;50.952;4.366;2023-06-10T06:21:29;11.15;;;8.40;;
32427;SDS011;18882;50.952;4.366;2023-06-10T06:23:55;11.65;;;8.82;;
32427;SDS011;18882;50.952;4.366;2023-06-10T06:26:20;9.32;;;7.82;;
32427;SDS011;18882;50.952;4.366;2023-06-10T06:28:46;15.38;;;7.80;;
32427;SDS011;18882;50.952;4.366;2023-06-10T06:31:12;9.05;;;7.38;;
32427;SDS011;18882;50.952;4.366;2023-06-10T06:33:37;8.52;;;7.15;;
32427;SDS011;18882;50.952;4.366;2023-06-10T06:36:03;11.27;;;7.50;;
32427;SDS011;18882;50.952;4.366;2023-06-10T06:38:29;9.40;;;7.35;;
32427;SDS011;18882;50.952;4.366;2023-06-10T06:40:55;10.02;;;8.30;;
32427;SDS011;18882;50.952;4.366;2023-06-10T06:43:20;11.68;;;7.82;;
32427;SDS011;18882;50.952;4.366;2023-06-10T06:45:46;7.97;;;7.00;;
32427;SDS011;18882;50.952;4.366;2023-06-10T06:48:12;10.90;;;7.55;;
32427;SDS011;18882;50.952;4.366;2023-06-10T06:50:37;10.98;;;7.78;;
32427;SDS011;18882;50.952;4.366;2023-06-10T06:53:03;12.98;;;8.18;;
32427;SDS011;18882;50.952;4.366;2023-06-10T06:55:29;9.15;;;7.07;;
32427;SDS011;18882;50.952;4.366;2023-06-10T06:57:55;12.40;;;7.40;;
32427;SDS011;18882;50.952;4.366;2023-06-10T07:00:21;7.60;;;6.60;;
32427;SDS011;18882;50.952;4.366;2023-06-10T07:02:48;11.35;;;6.97;;
32427;SDS011;18882;50.952;4.366;2023-06-10T07:05:14;10.77;;;7.43;;
32427;SDS011;18882;50.952;4.366;2023-06-10T07:07:39;11.40;;;6.88;;
32427;SDS011;18882;50.952;4.366;2023-06-10T07:10:05;12.55;;;7.18;;
32427;SDS011;18882;50.952;4.366;2023-06-10T07:12:31;8.70;;;6.50;;
32427;SDS011;18882;50.952;4.366;2023-06-10T07:14:57;8.80;;;7.18;;
32427;SDS011;18882;50.952;4.366;2023-06-10T07:17:23;9.55;;;7.20;;
32427;SDS011;18882;50.952;4.366;2023-06-10T07:19:48;9.85;;;6.25;;
32427;SDS011;18882;50.952;4.366;2023-06-10T07:22:14;9.82;;;6.75;;
32427;SDS011;18882;50.952;4.366;2023-06-10T07:24:40;8.45;;;6.47;;
32427;SDS011;18882;50.952;4.366;2023-06-10T07:27:06;6.85;;;6.13;;
32427;SDS011;18882;50.952;4.366;2023-06-10T07:29:32;8.60;;;7.00;;
32427;SDS011;18882;50.952;4.366;2023-06-10T07:31:57;10.02;;;5.90;;
32427;SDS011;18882;50.952;4.366;2023-06-10T07:34:23;8.20;;;6.53;;
32427;SDS011;18882;50.952;4.366;2023-06-10T07:36:49;6.68;;;6.03;;
32427;SDS011;18882;50.952;4.366;2023-06-10T07:39:15;10.80;;;6.72;;
32427;SDS011;18882;50.952;4.366;2023-06-10T07:41:40;11.40;;;7.10;;
32427;SDS011;18882;50.952;4.366;2023-06-10T07:44:06;6.82;;;6.13;;
32427;SDS011;18882;50.952;4.366;2023-06-10T07:46:32;7.35;;;6.28;;
32427;SDS011;18882;50.952;4.366;2023-06-10T07:48:57;7.70;;;5.82;;
32427;SDS011;18882;50.952;4.366;2023-06-10T07:51:23;9.77;;;6.68;;
32427;SDS011;18882;50.952;4.366;2023-06-10T07:53:48;9.05;;;5.70;;
32427;SDS011;18882;50.952;4.366;2023-06-10T07:56:14;6.68;;;5.78;;
32427;SDS011;18882;50.952;4.366;2023-06-10T07:58:40;6.70;;;5.72;;
32427;SDS011;18882;50.952;4.366;2023-06-10T08:01:06;8.57;;;5.90;;
32427;SDS011;18882;50.952;4.366;2023-06-10T08:03:32;7.32;;;5.32;;
32427;SDS011;18882;50.952;4.366;2023-06-10T08:05:58;7.75;;;6.03;;
32427;SDS011;18882;50.952;4.366;2023-06-10T08:08:23;7.47;;;5.60;;
32427;SDS011;18882;50.952;4.366;2023-06-10T08:10:49;6.78;;;5.60;;
32427;SDS011;18882;50.952;4.366;2023-06-10T08:13:14;7.82;;;6.07;;
32427;SDS011;18882;50.952;4.366;2023-06-10T08:15:40;6.65;;;5.60;;
32427;SDS011;18882;50.952;4.366;2023-06-10T08:18:06;8.00;;;6.15;;
32427;SDS011;18882;50.952;4.366;2023-06-10T08:20:32;8.73;;;6.28;;
32427;SDS011;18882;50.952;4.366;2023-06-10T08:22:57;6.75;;;6.05;;
32427;SDS011;18882;50.952;4.366;2023-06-10T08:25:23;8.13;;;5.88;;
32427;SDS011;18882;50.952;4.366;2023-06-10T08:27:49;7.65;;;6.13;;
32427;SDS011;18882;50.952;4.366;2023-06-10T08:30:15;6.93;;;6.05;;
32427;SDS011;18882;50.952;4.366;2023-06-10T08:32:41;6.97;;;6.10;;
32427;SDS011;18882;50.952;4.366;2023-06-10T08:35:07;7.18;;;5.68;;
32427;SDS011;18882;50.952;4.366;2023-06-10T08:37:33;10.30;;;5.63;;
32427;SDS011;18882;50.952;4.366;2023-06-10T08:39:58;8.45;;;5.55;;
32427;SDS011;18882;50.952;4.366;2023-06-10T08:42:26;6.65;;;5.60;;
32427;SDS011;18882;50.952;4.366;2023-06-10T08:44:58;6.03;;;5.03;;
32427;SDS011;18882;50.952;4.366;2023-06-10T08:47:27;5.97;;;5.15;;
32427;SDS011;18882;50.952;4.366;2023-06-10T08:49:56;5.40;;;4.68;;
32427;SDS011;18882;50.952;4.366;2023-06-10T08:52:28;5.60;;;4.88;;
32427;SDS011;18882;50.952;4.366;2023-06-10T08:55:00;8.68;;;4.97;;
32427;SDS011;18882;50.952;4.366;2023-06-10T08:57:35;7.88;;;5.13;;
32427;SDS011;18882;50.952;4.366;2023-06-10T09:00:02;6.47;;;5.00;;
32427;SDS011;18882;50.952;4.366;2023-06-10T09:02:29;6.90;;;5.38;;
32427;SDS011;18882;50.952;4.366;2023-06-10T09:05:00;5.70;;;5.20;;
32427;SDS011;18882;50.952;4.366;2023-06-10T09:07:26;4.85;;;4.38;;
32427;SDS011;18882;50.952;4.366;2023-06-10T09:09:52;5.57;;;5.00;;
32427;SDS011;18882;50.952;4.366;2023-06-10T09:12:19;6.13;;;5.10;;
32427;SDS011;18882;50.952;4.366;2023-06-10T09:14:45;5.55;;;4.95;;
32427;SDS011;18882;50.952;4.366;2023-06-10T09:17:11;7.55;;;4.80;;
32427;SDS011;18882;50.952;4.366;2023-06-10T09:19:36;5.38;;;4.20;;
32427;SDS011;18882;50.952;4.366;2023-06-10T09:22:04;7.97;;;4.90;;
32427;SDS011;18882;50.952;4.366;2023-06-10T09:24:30;5.28;;;4.50;;
32427;SDS011;18882;50.952;4.366;2023-06-10T09:27:03;7.72;;;4.90;;
32427;SDS011;18882;50.952;4.366;2023-06-10T09:31:57;5.22;;;4.00;;
32427;SDS011;18882;50.952;4.366;2023-06-10T09:34:25;4.63;;;3.53;;
32427;SDS011;18882;50.952;4.366;2023-06-10T09:36:53;4.13;;;3.83;;
32427;SDS011;18882;50.952;4.366;2023-06-10T09:39:20;7.00;;;3.85;;
32427;SDS011;18882;50.952;4.366;2023-06-10T09:41:46;4.13;;;3.72;;
32427;SDS011;18882;50.952;4.366;2023-06-10T09:44:16;3.80;;;3.45;;
32427;SDS011;18882;50.952;4.366;2023-06-10T09:46:46;4.50;;;4.13;;
32427;SDS011;18882;50.952;4.366;2023-06-10T09:49:13;5.45;;;4.18;;
32427;SDS011;18882;50.952;4.366;2023-06-10T09:52:00;6.45;;;3.53;;
32427;SDS011;18882;50.952;4.366;2023-06-10T09:54:24;6.13;;;4.28;;
32427;SDS011;18882;50.952;4.366;2023-06-10T09:56:57;8.15;;;4.43;;
32427;SDS011;18882;50.952;4.366;2023-06-10T09:59:28;4.38;;;3.85;;
32427;SDS011;18882;50.952;4.366;2023-06-10T10:01:55;4.47;;;4.00;;
32427;SDS011;18882;50.952;4.366;2023-06-10T10:04:24;4.68;;;4.28;;
32427;SDS011;18882;50.952;4.366;2023-06-10T10:06:50;5.18;;;4.68;;
32427;SDS011;18882;50.952;4.366;2023-06-10T10:09:16;5.13;;;4.38;;
32427;SDS011;18882;50.952;4.366;2023-06-10T10:11:42;5.00;;;4.55;;
32427;SDS011;18882;50.952;4.366;2023-06-10T10:14:09;5.82;;;4.43;;
32427;SDS011;18882;50.952;4.366;2023-06-10T10:16:36;4.07;;;3.75;;
32427;SDS011;18882;50.952;4.366;2023-06-10T10:19:12;4.45;;;4.05;;
32427;SDS011;18882;50.952;4.366;2023-06-10T10:21:53;4.30;;;4.00;;
32427;SDS011;18882;50.952;4.366;2023-06-10T10:24:22;4.05;;;3.75;;
32427;SDS011;18882;50.952;4.366;2023-06-10T10:26:52;4.60;;;4.20;;
32427;SDS011;18882;50.952;4.366;2023-06-10T10:29:30;5.03;;;4.53;;
32427;SDS011;18882;50.952;4.366;2023-06-10T10:32:01;4.45;;;4.05;;
32427;SDS011;18882;50.952;4.366;2023-06-10T10:34:35;5.65;;;4.68;;
32427;SDS011;18882;50.952;4.366;2023-06-10T10:37:08;4.47;;;3.80;;
32427;SDS011;18882;50.952;4.366;2023-06-10T10:39:34;5.80;;;4.00;;
32427;SDS011;18882;50.952;4.366;2023-06-10T10:42:01;4.63;;;4.25;;
32427;SDS011;18882;50.952;4.366;2023-06-10T10:44:29;4.50;;;4.20;;
32427;SDS011;18882;50.952;4.366;2023-06-10T10:46:55;4.43;;;3.95;;
32427;SDS011;18882;50.952;4.366;2023-06-10T10:49:22;4.45;;;3.97;;
32427;SDS011;18882;50.952;4.366;2023-06-10T10:52:00;4.13;;;3.72;;
32427;SDS011;18882;50.952;4.366;2023-06-10T10:57:09;3.80;;;3.55;;
32427;SDS011;18882;50.952;4.366;2023-06-10T11:02:31;6.07;;;4.47;;
32427;SDS011;18882;50.952;4.366;2023-06-10T11:05:02;4.95;;;4.10;;
32427;SDS011;18882;50.952;4.366;2023-06-10T11:07:30;4.97;;;4.57;;
32427;SDS011;18882;50.952;4.366;2023-06-10T11:15:23;5.63;;;4.00;;
32427;SDS011;18882;50.952;4.366;2023-06-10T11:20:45;7.53;;;4.03;;
32427;SDS011;18882;50.952;4.366;2023-06-10T11:23:29;4.57;;;4.18;;
32427;SDS011;18882;50.952;4.366;2023-06-10T11:26:17;7.63;;;4.30;;
32427;SDS011;18882;50.952;4.366;2023-06-10T11:33:48;6.03;;;4.43;;
32427;SDS011;18882;50.952;4.366;2023-06-10T11:36:21;7.00;;;3.90;;
32427;SDS011;18882;50.952;4.366;2023-06-10T11:38:47;4.38;;;3.97;;
32427;SDS011;18882;50.952;4.366;2023-06-10T11:41:19;4.43;;;4.03;;
32427;SDS011;18882;50.952;4.366;2023-06-10T11:43:52;6.40;;;3.85;;
32427;SDS011;18882;50.952;4.366;2023-06-10T11:46:22;4.65;;;4.22;;
32427;SDS011;18882;50.952;4.366;2023-06-10T11:48:48;6.03;;;4.22;;
32427;SDS011;18882;50.952;4.366;2023-06-10T11:51:18;4.60;;;4.28;;
32427;SDS011;18882;50.952;4.366;2023-06-10T11:53:45;4.32;;;3.92;;
32427;SDS011;18882;50.952;4.366;2023-06-10T11:56:11;7.47;;;5.50;;
32427;SDS011;18882;50.952;4.366;2023-06-10T12:01:35;4.78;;;4.35;;
32427;SDS011;18882;50.952;4.366;2023-06-10T12:04:06;5.38;;;4.20;;
32427;SDS011;18882;50.952;4.366;2023-06-10T12:11:52;7.72;;;4.35;;
32427;SDS011;18882;50.952;4.366;2023-06-10T12:17:43;4.32;;;3.90;;
32427;SDS011;18882;50.952;4.366;2023-06-10T12:20:23;4.20;;;3.90;;
32427;SDS011;18882;50.952;4.366;2023-06-10T12:22:59;5.32;;;4.45;;
32427;SDS011;18882;50.952;4.366;2023-06-10T12:25:33;5.70;;;4.30;;
32427;SDS011;18882;50.952;4.366;2023-06-10T12:27:59;5.15;;;4.00;;
32427;SDS011;18882;50.952;4.366;2023-06-10T12:30:25;4.82;;;4.32;;
32427;SDS011;18882;50.952;4.366;2023-06-10T12:32:58;9.30;;;3.97;;
32427;SDS011;18882;50.952;4.366;2023-06-10T12:35:25;4.85;;;4.45;;
32427;SDS011;18882;50.952;4.366;2023-06-10T12:38:04;5.00;;;4.50;;
32427;SDS011;18882;50.952;4.366;2023-06-10T12:40:36;5.43;;;4.68;;
32427;SDS011;18882;50.952;4.366;2023-06-10T12:43:10;4.68;;;4.22;;
32427;SDS011;18882;50.952;4.366;2023-06-10T12:45:39;4.88;;;4.07;;
32427;SDS011;18882;50.952;4.366;2023-06-10T12:50:44;5.18;;;4.65;;
32427;SDS011;18882;50.952;4.366;2023-06-10T12:53:31;7.10;;;4.03;;
32427;SDS011;18882;50.952;4.366;2023-06-10T12:56:05;7.25;;;4.47;;
32427;SDS011;18882;50.952;4.366;2023-06-10T12:58:39;5.07;;;4.20;;
32427;SDS011;18882;50.952;4.366;2023-06-10T13:01:05;5.32;;;4.40;;
32427;SDS011;18882;50.952;4.366;2023-06-10T13:03:31;4.53;;;4.07;;
32427;SDS011;18882;50.952;4.366;2023-06-10T13:05:56;4.30;;;3.50;;
32427;SDS011;18882;50.952;4.366;2023-06-10T13:08:22;5.45;;;3.90;;
32427;SDS011;18882;50.952;4.366;2023-06-10T13:10:48;11.60;;;4.05;;
32427;SDS011;18882;50.952;4.366;2023-06-10T13:13:14;4.53;;;3.90;;
32427;SDS011;18882;50.952;4.366;2023-06-10T13:15:41;6.38;;;3.83;;
32427;SDS011;18882;50.952;4.366;2023-06-10T13:18:06;9.38;;;3.92;;
32427;SDS011;18882;50.952;4.366;2023-06-10T13:20:32;4.35;;;4.03;;
32427;SDS011;18882;50.952;4.366;2023-06-10T13:22:58;4.57;;;3.45;;
32427;SDS011;18882;50.952;4.366;2023-06-10T13:25:24;6.32;;;3.42;;
32427;SDS011;18882;50.952;4.366;2023-06-10T13:27:50;3.78;;;3.47;;
32427;SDS011;18882;50.952;4.366;2023-06-10T13:30:15;5.28;;;3.78;;
32427;SDS011;18882;50.952;4.366;2023-06-10T13:32:41;4.72;;;3.28;;
32427;SDS011;18882;50.952;4.366;2023-06-10T13:35:07;6.15;;;4.28;;
32427;SDS011;18882;50.952;4.366;2023-06-10T13:37:33;4.97;;;4.40;;
32427;SDS011;18882;50.952;4.366;2023-06-10T13:39:59;4.57;;;3.70;;
32427;SDS011;18882;50.952;4.366;2023-06-10T13:42:25;5.15;;;4.03;;
32427;SDS011;18882;50.952;4.366;2023-06-10T13:44:51;4.50;;;4.05;;
32427;SDS011;18882;50.952;4.366;2023-06-10T13:47:17;4.45;;;4.05;;
32427;SDS011;18882;50.952;4.366;2023-06-10T13:49:49;5.13;;;3.78;;
32427;SDS011;18882;50.952;4.366;2023-06-10T13:52:15;4.35;;;4.05;;
32427;SDS011;18882;50.952;4.366;2023-06-10T13:54:40;5.50;;;4.38;;
32427;SDS011;18882;50.952;4.366;2023-06-10T13:57:06;5.90;;;4.00;;
32427;SDS011;18882;50.952;4.366;2023-06-10T13:59:32;5.00;;;4.13;;
32427;SDS011;18882;50.952;4.366;2023-06-10T14:01:58;4.80;;;4.00;;
32427;SDS011;18882;50.952;4.366;2023-06-10T14:04:23;7.30;;;4.60;;
32427;SDS011;18882;50.952;4.366;2023-06-10T14:06:49;5.40;;;4.35;;
32427;SDS011;18882;50.952;4.366;2023-06-10T14:09:15;6.40;;;4.40;;
32427;SDS011;18882;50.952;4.366;2023-06-10T14:11:41;6.28;;;4.25;;
32427;SDS011;18882;50.952;4.366;2023-06-10T14:14:07;4.93;;;3.38;;
32427;SDS011;18882;50.952;4.366;2023-06-10T14:16:32;7.82;;;4.20;;
32427;SDS011;18882;50.952;4.366;2023-06-10T14:18:58;6.47;;;4.30;;
32427;SDS011;18882;50.952;4.366;2023-06-10T14:21:24;5.22;;;4.45;;
32427;SDS011;18882;50.952;4.366;2023-06-10T14:23:52;9.32;;;4.38;;
32427;SDS011;18882;50.952;4.366;2023-06-10T14:26:24;5.95;;;4.30;;
32427;SDS011;18882;50.952;4.366;2023-06-10T14:28:51;5.00;;;4.07;;
32427;SDS011;18882;50.952;4.366;2023-06-10T14:31:17;5.50;;;4.05;;
32427;SDS011;18882;50.952;4.366;2023-06-10T14:33:42;6.03;;;4.78;;
32427;SDS011;18882;50.952;4.366;2023-06-10T14:36:09;5.07;;;4.35;;
32427;SDS011;18882;50.952;4.366;2023-06-10T14:38:38;4.75;;;4.05;;
32427;SDS011;18882;50.952;4.366;2023-06-10T14:41:03;4.40;;;3.65;;
32427;SDS011;18882;50.952;4.366;2023-06-10T14:43:29;4.68;;;4.20;;
32427;SDS011;18882;50.952;4.366;2023-06-10T14:45:55;7.75;;;4.75;;
32427;SDS011;18882;50.952;4.366;2023-06-10T14:48:21;5.70;;;4.60;;
32427;SDS011;18882;50.952;4.366;2023-06-10T14:50:47;4.75;;;4.35;;
32427;SDS011;18882;50.952;4.366;2023-06-10T14:53:16;4.90;;;4.50;;
32427;SDS011;18882;50.952;4.366;2023-06-10T14:55:44;6.20;;;4.47;;
32427;SDS011;18882;50.952;4.366;2023-06-10T14:58:19;5.57;;;3.65;;
32427;SDS011;18882;50.952;4.366;2023-06-10T15:00:48;5.93;;;3.85;;
32427;SDS011;18882;50.952;4.366;2023-06-10T15:03:14;4.90;;;4.40;;
32427;SDS011;18882;50.952;4.366;2023-06-10T15:05:39;4.93;;;3.95;;
32427;SDS011;18882;50.952;4.366;2023-06-10T15:10:49;5.75;;;4.30;;
32427;SDS011;18882;50.952;4.366;2023-06-10T15:13:15;5.93;;;4.63;;
32427;SDS011;18882;50.952;4.366;2023-06-10T15:15:40;4.20;;;3.80;;
32427;SDS011;18882;50.952;4.366;2023-06-10T15:18:06;5.15;;;3.83;;
32427;SDS011;18882;50.952;4.366;2023-06-10T15:20:32;4.35;;;4.03;;
32427;SDS011;18882;50.952;4.366;2023-06-10T15:22:57;5.60;;;3.83;;
32427;SDS011;18882;50.952;4.366;2023-06-10T15:25:23;4.57;;;3.90;;
32427;SDS011;18882;50.952;4.366;2023-06-10T15:27:49;5.00;;;4.13;;
32427;SDS011;18882;50.952;4.366;2023-06-10T15:30:14;5.97;;;3.78;;